createdAt,value
2023-05-15T00:02:08.742Z,95073.28
2023-05-15T00:04:37.734Z,95078.97
2023-05-15T00:07:06.984Z,95078.53
2023-05-15T00:09:36.198Z,95084.72
2023-05-15T00:12:05.196Z,95070.19
2023-05-15T00:14:34.033Z,95074.31
2023-05-15T00:17:04.097Z,95070.19
2023-05-15T00:19:32.798Z,95075.72
2023-05-15T00:22:01.794Z,95067.72
2023-05-15T00:24:30.624Z,95073.56
2023-05-15T00:27:01.317Z,95065.56
2023-05-15T00:29:30.152Z,95070.97
2023-05-15T00:31:59.107Z,95066.59
2023-05-15T00:34:28.394Z,95064.94
2023-05-15T00:36:57.719Z,95055.38
2023-05-15T00:39:26.680Z,95063.34
2023-05-15T00:42:00.692Z,95062.47
2023-05-15T00:44:35.254Z,95053.63
2023-05-15T00:47:05.967Z,95056.38
2023-05-15T00:49:36.528Z,95045.22
2023-05-15T00:52:08.906Z,95052.91
2023-05-15T00:54:37.998Z,95043.94
2023-05-15T00:57:09.256Z,95041.69
2023-05-15T00:59:40.670Z,95034.53
2023-05-15T01:02:11.762Z,95029.66
2023-05-15T01:04:41.280Z,95034.00
2023-05-15T01:07:10.126Z,95033.53
2023-05-15T01:09:40.702Z,95034.84
2023-05-15T01:12:11.291Z,95031.69
2023-05-15T01:14:40.179Z,95022.69
2023-05-15T01:17:09.427Z,95021.31
2023-05-15T01:19:39.345Z,95031.84
2023-05-15T01:22:22.906Z,95018.06
2023-05-15T01:25:18.200Z,95012.69
2023-05-15T01:27:53.303Z,95018.78
2023-05-15T01:30:29.807Z,95012.38
2023-05-15T01:33:13.488Z,95009.28
2023-05-15T01:35:51.452Z,95001.53
2023-05-15T01:38:45.622Z,95017.03
2023-05-15T01:41:25.245Z,95003.31
2023-05-15T01:44:01.625Z,95005.09
2023-05-15T01:46:32.301Z,94991.06
2023-05-15T01:49:03.945Z,94997.13
2023-05-15T01:51:34.083Z,94985.38
2023-05-15T01:54:04.389Z,95001.84
2023-05-15T01:56:36.726Z,95001.72
2023-05-15T01:59:06.881Z,94998.66
2023-05-15T02:01:39.503Z,94996.06
2023-05-15T02:04:10.122Z,94997.81
2023-05-15T02:06:39.781Z,94993.66
2023-05-15T02:09:11.607Z,94995.09
2023-05-15T02:11:42.945Z,94993.03
2023-05-15T02:14:13.396Z,94986.47
2023-05-15T02:16:42.396Z,94989.84
2023-05-15T02:19:11.653Z,94987.84
2023-05-15T02:21:40.484Z,94996.22
2023-05-15T02:24:09.534Z,94977.75
2023-05-15T02:27:33.717Z,94977.91
2023-05-15T02:30:30.075Z,94965.97
2023-05-15T02:33:20.910Z,94981.81
2023-05-15T02:35:55.263Z,94970.13
2023-05-15T02:38:49.204Z,94966.16
2023-05-15T02:41:18.713Z,94969.31
2023-05-15T02:43:51.091Z,94951.44
2023-05-15T02:46:21.966Z,94956.53
2023-05-15T02:48:52.520Z,94951.56
2023-05-15T02:51:21.750Z,94940.38
2023-05-15T02:53:53.365Z,94942.28
2023-05-15T02:56:22.903Z,94935.94
2023-05-15T02:58:51.686Z,94940.38
2023-05-15T03:01:21.110Z,94939.44
2023-05-15T03:03:50.465Z,94935.19
2023-05-15T03:06:19.509Z,94936.97
2023-05-15T03:08:48.452Z,94941.59
2023-05-15T03:11:19.739Z,94937.34
2023-05-15T03:13:48.637Z,94922.97
2023-05-15T03:16:17.442Z,94933.09
2023-05-15T03:18:47.070Z,94916.19
2023-05-15T03:21:16.223Z,94921.66
2023-05-15T03:23:45.204Z,94918.63
2023-05-15T03:26:14.104Z,94916.22
2023-05-15T03:28:42.908Z,94917.94
2023-05-15T03:31:12.024Z,94917.03
2023-05-15T03:33:41.509Z,94913.03
2023-05-15T03:36:10.436Z,94903.69
2023-05-15T03:38:39.421Z,94915.78
2023-05-15T03:41:11.129Z,94906.47
2023-05-15T03:43:40.018Z,94913.28
2023-05-15T03:46:08.855Z,94910.09
2023-05-15T03:48:37.665Z,94909.34
2023-05-15T03:51:08.117Z,94901.03
2023-05-15T03:53:36.951Z,94903.25
2023-05-15T03:56:06.563Z,94895.19
2023-05-15T03:58:35.476Z,94897.34
2023-05-15T04:01:05.450Z,94879.63
2023-05-15T04:03:34.795Z,94873.38
2023-05-15T04:06:03.714Z,94886.97
2023-05-15T04:08:32.565Z,94891.00
2023-05-15T04:11:01.549Z,94884.94
2023-05-15T04:13:30.364Z,94881.03
2023-05-15T04:16:00.541Z,94872.03
2023-05-15T04:18:29.530Z,94869.88
2023-05-15T04:20:58.405Z,94873.25
2023-05-15T04:23:27.218Z,94876.72
2023-05-15T04:25:56.012Z,94860.19
2023-05-15T04:28:24.992Z,94867.66
2023-05-15T04:30:53.880Z,94867.03
2023-05-15T04:33:22.641Z,94855.78
2023-05-15T04:35:51.616Z,94852.91
2023-05-15T04:38:20.476Z,94842.34
2023-05-15T04:40:49.325Z,94843.13
2023-05-15T04:43:18.191Z,94842.09
2023-05-15T04:45:47.029Z,94838.44
2023-05-15T04:48:16.033Z,94835.44
2023-05-15T04:50:44.755Z,94829.41
2023-05-15T04:53:13.943Z,94823.22
2023-05-15T04:55:42.723Z,94829.41
2023-05-15T04:58:11.647Z,94824.31
2023-05-15T05:00:40.906Z,94823.41
2023-05-15T05:03:10.341Z,94813.34
2023-05-15T05:05:39.269Z,94825.59
2023-05-15T05:08:08.152Z,94819.88
2023-05-15T05:10:36.938Z,94824.38
2023-05-15T05:13:05.756Z,94816.19
2023-05-15T05:15:34.637Z,94812.88
2023-05-15T05:18:03.731Z,94800.50
2023-05-15T05:20:32.654Z,94804.69
2023-05-15T05:23:05.064Z,94794.25
2023-05-15T05:25:39.311Z,94801.28
2023-05-15T05:28:08.183Z,94794.88
2023-05-15T05:30:37.069Z,94784.28
2023-05-15T05:33:06.843Z,94791.03
2023-05-15T05:35:35.671Z,94790.31
2023-05-15T05:38:04.832Z,94782.13
2023-05-15T05:40:33.853Z,94775.22
2023-05-15T05:43:03.094Z,94767.72
2023-05-15T05:45:31.962Z,94789.56
2023-05-15T05:48:00.946Z,94785.56
2023-05-15T05:50:29.971Z,94780.25
2023-05-15T05:52:58.868Z,94773.25
2023-05-15T05:55:27.965Z,94764.94
2023-05-15T05:57:57.070Z,94769.47
2023-05-15T06:00:27.005Z,94760.66
2023-05-15T06:02:59.033Z,94757.16
2023-05-15T06:05:28.376Z,94759.81
2023-05-15T06:07:59.063Z,94746.72
2023-05-15T06:10:27.959Z,94749.47
2023-05-15T06:12:56.926Z,94753.66
2023-05-15T06:15:26.840Z,94753.38
2023-05-15T06:17:56.133Z,94742.81
2023-05-15T06:20:25.743Z,94740.25
2023-05-15T06:22:54.614Z,94732.75
2023-05-15T06:25:23.481Z,94731.88
2023-05-15T06:27:52.356Z,94727.94
2023-05-15T06:30:21.152Z,94730.03
2023-05-15T06:32:50.033Z,94717.97
2023-05-15T06:35:19.592Z,94728.25
2023-05-15T06:37:50.850Z,94719.97
2023-05-15T06:40:19.899Z,94716.44
2023-05-15T06:42:48.853Z,94719.41
2023-05-15T06:45:17.875Z,94723.88
2023-05-15T06:47:47.809Z,94716.84
2023-05-15T06:50:16.727Z,94717.78
2023-05-15T06:52:45.559Z,94703.78
2023-05-15T06:55:14.398Z,94706.16
2023-05-15T06:57:43.253Z,94710.00
2023-05-15T07:00:13.784Z,94691.09
2023-05-15T07:02:44.309Z,94692.06
2023-05-15T07:05:15.099Z,94699.25
2023-05-15T07:07:44.181Z,94694.59
2023-05-15T07:10:12.951Z,94686.06
2023-05-15T07:12:41.765Z,94689.53
2023-05-15T07:15:11.181Z,94687.53
2023-05-15T07:17:40.181Z,94687.00
2023-05-15T07:20:09.513Z,94687.00
2023-05-15T07:22:51.952Z,94694.16
2023-05-15T07:25:26.204Z,94683.38
2023-05-15T07:27:55.336Z,94680.56
2023-05-15T07:30:24.523Z,94679.88
2023-05-15T07:32:53.656Z,94679.28
2023-05-15T07:35:22.771Z,94677.75
2023-05-15T07:37:51.695Z,94678.03
2023-05-15T07:40:20.569Z,94678.16
2023-05-15T07:42:49.352Z,94673.72
2023-05-15T07:45:18.274Z,94670.22
2023-05-15T07:47:47.880Z,94677.34
2023-05-15T07:50:17.940Z,94678.13
2023-05-15T07:52:46.835Z,94679.13
2023-05-15T07:55:15.779Z,94676.94
2023-05-15T07:57:45.099Z,94666.88
2023-05-15T08:00:15.577Z,94684.41
2023-05-15T08:02:46.766Z,94681.81
2023-05-15T08:05:15.906Z,94680.78
2023-05-15T08:07:44.717Z,94674.31
2023-05-15T08:10:13.680Z,94666.41
2023-05-15T08:12:47.061Z,94669.59
2023-05-15T08:15:16.031Z,94673.81
2023-05-15T08:17:45.653Z,94684.13
2023-05-15T08:20:14.744Z,94668.75
2023-05-15T08:22:43.618Z,94673.22
2023-05-15T08:25:12.373Z,94673.88
2023-05-15T08:27:41.311Z,94669.06
2023-05-15T08:30:10.528Z,94676.38
2023-05-15T08:32:39.479Z,94663.75
2023-05-15T08:35:08.918Z,94664.44
2023-05-15T08:37:38.052Z,94655.31
2023-05-15T08:40:08.494Z,94662.09
2023-05-15T08:42:51.256Z,94651.25
2023-05-15T08:45:20.980Z,94658.63
2023-05-15T08:47:49.980Z,94665.75
2023-05-15T08:50:19.929Z,94658.66
2023-05-15T08:52:50.138Z,94656.81
2023-05-15T08:55:19.170Z,94654.78
2023-05-15T08:57:49.930Z,94660.78
2023-05-15T09:00:22.781Z,94660.97
2023-05-15T09:02:55.304Z,94662.34
2023-05-15T09:05:25.748Z,94653.94
2023-05-15T09:07:56.364Z,94660.50
2023-05-15T09:10:25.604Z,94669.78
2023-05-15T09:12:55.505Z,94658.22
2023-05-15T09:15:26.310Z,94660.06
2023-05-15T09:17:56.147Z,94661.34
2023-05-15T09:20:35.900Z,94664.84
2023-05-15T09:23:06.882Z,94659.81
2023-05-15T09:25:45.468Z,94654.19
2023-05-15T09:28:32.197Z,94667.22
2023-05-15T09:31:03.471Z,94673.34
2023-05-15T09:33:40.648Z,94676.94
2023-05-15T09:36:10.653Z,94686.41
2023-05-15T09:38:44.176Z,94689.31
2023-05-15T09:41:13.054Z,94687.66
2023-05-15T09:43:42.450Z,94682.38
2023-05-15T09:46:15.487Z,94688.84
2023-05-15T09:48:44.618Z,94696.91
2023-05-15T09:51:21.738Z,94695.63
2023-05-15T09:53:51.510Z,94704.56
2023-05-15T09:56:20.247Z,94698.53
2023-05-15T09:58:57.693Z,94701.47
2023-05-15T10:01:28.365Z,94699.09
2023-05-15T10:04:02.269Z,94694.19
2023-05-15T10:06:39.490Z,94700.72
2023-05-15T10:09:11.065Z,94682.59
2023-05-15T10:11:45.391Z,94699.75
2023-05-15T10:14:14.857Z,94711.66
2023-05-15T10:16:44.476Z,94706.50
2023-05-15T10:19:14.371Z,94717.28
2023-05-15T10:21:43.239Z,94717.69
2023-05-15T10:24:13.299Z,94724.66
2023-05-15T10:26:44.043Z,94728.19
2023-05-15T10:29:15.425Z,94740.91
2023-05-15T10:31:44.679Z,94733.59
2023-05-15T10:34:14.222Z,94725.56
2023-05-15T10:36:44.022Z,94733.25
2023-05-15T10:39:13.503Z,94740.13
2023-05-15T10:41:43.456Z,94736.66
2023-05-15T10:44:12.716Z,94745.78
2023-05-15T10:46:41.867Z,94754.94
2023-05-15T10:49:10.961Z,94750.44
2023-05-15T10:51:41.120Z,94751.75
2023-05-15T10:54:11.045Z,94760.38
2023-05-15T10:56:40.626Z,94742.31
2023-05-15T10:59:11.691Z,94747.81
2023-05-15T11:01:42.917Z,94755.19
2023-05-15T11:04:17.732Z,94752.63
2023-05-15T11:06:48.487Z,94759.22
2023-05-15T11:09:27.250Z,94764.38
2023-05-15T11:11:58.599Z,94761.81
2023-05-15T11:14:28.484Z,94772.44
2023-05-15T11:16:58.956Z,94770.66
2023-05-15T11:19:34.038Z,94769.91
2023-05-15T11:22:21.620Z,94777.66
2023-05-15T11:25:10.152Z,94778.03
2023-05-15T11:27:46.909Z,94773.41
2023-05-15T11:30:23.427Z,94786.25
2023-05-15T11:32:59.144Z,94786.81
2023-05-15T11:35:44.071Z,94798.97
2023-05-15T11:38:17.132Z,94793.31
2023-05-15T11:41:04.078Z,94799.16
2023-05-15T11:43:35.757Z,94795.75
2023-05-15T11:46:04.736Z,94808.81
2023-05-15T11:48:35.639Z,94811.53
2023-05-15T11:51:06.190Z,94814.69
2023-05-15T11:53:36.304Z,94815.63
2023-05-15T11:56:05.441Z,94816.09
2023-05-15T11:58:34.529Z,94817.38
2023-05-15T12:01:04.376Z,94831.03
2023-05-15T12:03:36.946Z,94828.09
2023-05-15T12:06:06.256Z,94827.38
2023-05-15T12:08:39.670Z,94837.03
2023-05-15T12:11:09.001Z,94851.34
2023-05-15T12:13:38.027Z,94845.97
2023-05-15T12:16:07.224Z,94853.75
2023-05-15T12:18:36.571Z,94853.03
2023-05-15T12:21:06.558Z,94865.53
2023-05-15T12:23:35.590Z,94866.84
2023-05-15T12:26:05.112Z,94866.22
2023-05-15T12:28:36.993Z,94860.94
2023-05-15T12:31:06.365Z,94881.50
2023-05-15T12:33:35.486Z,94875.78
2023-05-15T12:36:05.077Z,94880.88
2023-05-15T12:38:35.536Z,94883.28
2023-05-15T12:41:04.622Z,94889.53
2023-05-15T12:43:33.857Z,94901.16
2023-05-15T12:46:02.875Z,94905.09
2023-05-15T12:48:33.185Z,94909.81
2023-05-15T12:51:07.844Z,94921.84
2023-05-15T12:53:40.251Z,94920.75
2023-05-15T12:56:17.840Z,94922.41
2023-05-15T12:58:48.189Z,94935.56
2023-05-15T13:01:18.486Z,94934.13
2023-05-15T13:03:48.843Z,94938.75
2023-05-15T13:06:18.638Z,94944.59
2023-05-15T13:08:49.297Z,94945.00
2023-05-15T13:11:18.839Z,94944.28
2023-05-15T13:13:49.929Z,94942.75
2023-05-15T13:16:23.303Z,94955.91
2023-05-15T13:18:52.865Z,94955.91
2023-05-15T13:21:21.823Z,94960.97
2023-05-15T13:23:52.279Z,94959.47
2023-05-15T13:26:21.520Z,94967.19
2023-05-15T13:28:50.680Z,94968.78
2023-05-15T13:31:19.715Z,94964.22
2023-05-15T13:33:49.797Z,94983.88
2023-05-15T13:36:18.893Z,94980.03
2023-05-15T13:38:47.993Z,94977.72
2023-05-15T13:41:16.769Z,94987.75
2023-05-15T13:43:45.742Z,94983.16
2023-05-15T13:46:14.725Z,94988.19
2023-05-15T13:48:44.507Z,94991.25
2023-05-15T13:51:13.383Z,95007.03
2023-05-15T13:53:46.404Z,95007.03
2023-05-15T13:56:16.966Z,94997.06
2023-05-15T13:58:46.251Z,95008.97
2023-05-15T14:01:16.201Z,95013.97
2023-05-15T14:03:46.276Z,95016.66
2023-05-15T14:06:15.218Z,95020.13
2023-05-15T14:08:44.234Z,95029.38
2023-05-15T14:11:13.136Z,95028.59
2023-05-15T14:13:43.179Z,95028.94
2023-05-15T14:16:13.236Z,95022.81
2023-05-15T14:18:42.159Z,95022.78
2023-05-15T14:21:11.259Z,95031.25
2023-05-15T14:23:40.176Z,95026.97
2023-05-15T14:26:09.209Z,95032.75
2023-05-15T14:28:38.125Z,95039.66
2023-05-15T14:31:07.207Z,95041.19
2023-05-15T14:33:36.047Z,95038.88
2023-05-15T14:36:05.422Z,95051.53
2023-05-15T14:38:34.398Z,95051.13
2023-05-15T14:41:03.442Z,95055.75
2023-05-15T14:43:32.363Z,95056.88
2023-05-15T14:46:01.448Z,95056.44
2023-05-15T14:48:30.677Z,95059.09
2023-05-15T14:50:59.705Z,95070.97
2023-05-15T14:53:28.789Z,95069.06
2023-05-15T14:55:59.154Z,95070.56
2023-05-15T14:58:28.602Z,95069.78
2023-05-15T15:00:58.784Z,95072.09
2023-05-15T15:03:29.491Z,95070.16
2023-05-15T15:05:59.879Z,95064.78
2023-05-15T15:08:29.081Z,95067.44
2023-05-15T15:10:58.502Z,95070.50
2023-05-15T15:13:27.897Z,95063.94
2023-05-15T15:15:57.385Z,95078.91
2023-05-15T15:18:26.914Z,95063.09
2023-05-15T15:20:55.887Z,95078.03
2023-05-15T15:23:24.804Z,95076.06
2023-05-15T15:25:53.527Z,95084.47
2023-05-15T15:28:22.320Z,95087.50
2023-05-15T15:30:51.202Z,95088.63
2023-05-15T15:33:20.006Z,95088.56
2023-05-15T15:35:48.789Z,95100.44
2023-05-15T15:38:17.746Z,95101.19
2023-05-15T15:40:46.806Z,95104.97
2023-05-15T15:43:15.576Z,95099.56
2023-05-15T15:45:45.060Z,95111.38
2023-05-15T15:48:14.186Z,95112.06
2023-05-15T15:50:43.355Z,95105.50
2023-05-15T15:53:12.429Z,95106.56
2023-05-15T15:55:41.594Z,95105.75
2023-05-15T15:58:10.877Z,95111.09
2023-05-15T16:00:40.762Z,95112.56
2023-05-15T16:03:09.971Z,95107.16
2023-05-15T16:05:39.039Z,95114.06
2023-05-15T16:08:07.958Z,95119.38
2023-05-15T16:10:37.295Z,95120.81
2023-05-15T16:13:06.308Z,95127.22
2023-05-15T16:15:35.308Z,95129.44
2023-05-15T16:18:04.310Z,95135.44
2023-05-15T16:20:35.102Z,95131.81
2023-05-15T16:23:04.312Z,95133.28
2023-05-15T16:25:33.113Z,95137.81
2023-05-15T16:28:01.935Z,95136.53
2023-05-15T16:30:44.308Z,95151.84
2023-05-15T16:33:18.880Z,95156.31
2023-05-15T16:35:49.361Z,95154.69
2023-05-15T16:38:19.468Z,95159.56
2023-05-15T16:40:48.554Z,95169.78
2023-05-15T16:43:17.569Z,95172.00
2023-05-15T16:45:46.823Z,95173.16
2023-05-15T16:48:15.857Z,95180.00
2023-05-15T16:50:44.790Z,95179.09
2023-05-15T16:53:15.483Z,95189.28
2023-05-15T16:55:44.461Z,95193.38
2023-05-15T16:58:13.581Z,95186.00
2023-05-15T17:00:43.225Z,95198.47
2023-05-15T17:03:13.352Z,95192.59
2023-05-15T17:05:42.399Z,95189.34
2023-05-15T17:08:11.296Z,95193.47
2023-05-15T17:10:40.479Z,95200.22
2023-05-15T17:13:09.297Z,95193.63
2023-05-15T17:15:38.086Z,95198.13
2023-05-15T17:18:07.102Z,95201.94
2023-05-15T17:20:36.285Z,95201.09
2023-05-15T17:23:05.347Z,95199.03
2023-05-15T17:25:34.757Z,95201.94
2023-05-15T17:28:03.546Z,95211.78
2023-05-15T17:30:32.397Z,95218.78
2023-05-15T17:33:01.616Z,95221.25
2023-05-15T17:35:32.795Z,95216.44
2023-05-15T17:38:02.206Z,95220.09
2023-05-15T17:40:31.180Z,95222.63
2023-05-15T17:43:00.017Z,95228.63
2023-05-15T17:45:28.945Z,95220.81
2023-05-15T17:48:04.055Z,95232.97
2023-05-15T17:50:34.532Z,95229.34
2023-05-15T17:53:04.582Z,95229.94
2023-05-15T17:55:33.558Z,95242.03
2023-05-15T17:58:02.544Z,95242.63
2023-05-15T18:00:31.934Z,95235.56
2023-05-15T18:03:01.824Z,95244.69
2023-05-15T18:05:31.212Z,95253.03
2023-05-15T18:08:02.173Z,95252.44
2023-05-15T18:10:31.187Z,95253.72
2023-05-15T18:13:00.057Z,95261.72
2023-05-15T18:15:29.091Z,95266.28
2023-05-15T18:17:58.561Z,95262.41
2023-05-15T18:20:27.466Z,95269.53
2023-05-15T18:22:56.420Z,95274.44
2023-05-15T18:25:25.666Z,95272.00
2023-05-15T18:27:54.632Z,95286.13
2023-05-15T18:30:23.560Z,95289.81
2023-05-15T18:32:52.504Z,95291.69
2023-05-15T18:35:21.514Z,95292.03
2023-05-15T18:37:50.454Z,95297.38
2023-05-15T18:40:19.653Z,95299.94
2023-05-15T18:42:49.350Z,95294.53
2023-05-15T18:45:19.407Z,95302.84
2023-05-15T18:47:50.117Z,95289.09
2023-05-15T18:50:25.436Z,95298.19
2023-05-15T18:52:54.363Z,95299.56
2023-05-15T18:55:23.506Z,95304.69
2023-05-15T18:57:52.475Z,95302.28
2023-05-15T19:00:33.972Z,95307.16
2023-05-15T19:03:07.207Z,95323.16
2023-05-15T19:05:36.362Z,95321.50
2023-05-15T19:08:05.362Z,95319.75
2023-05-15T19:10:34.526Z,95327.97
2023-05-15T19:13:03.423Z,95340.75
2023-05-15T19:15:32.324Z,95335.31
2023-05-15T19:18:01.623Z,95344.75
2023-05-15T19:20:30.601Z,95346.31
2023-05-15T19:22:59.676Z,95344.31
2023-05-15T19:25:28.737Z,95355.63
2023-05-15T19:27:57.755Z,95352.06
2023-05-15T19:30:26.971Z,95367.16
2023-05-15T19:32:56.067Z,95362.50
2023-05-15T19:35:25.256Z,95370.38
2023-05-15T19:37:54.300Z,95361.63
2023-05-15T19:40:23.399Z,95366.94
2023-05-15T19:42:52.577Z,95360.75
2023-05-15T19:45:21.645Z,95359.09
2023-05-15T19:47:50.661Z,95360.84
2023-05-15T19:50:19.556Z,95365.28
2023-05-15T19:52:48.555Z,95353.16
2023-05-15T19:55:17.928Z,95366.38
2023-05-15T19:57:47.044Z,95371.72
2023-05-15T20:00:17.163Z,95364.81
2023-05-15T20:02:46.493Z,95367.06
2023-05-15T20:05:18.579Z,95376.25
2023-05-15T20:07:47.564Z,95378.59
2023-05-15T20:10:19.086Z,95385.78
2023-05-15T20:12:48.654Z,95385.44
2023-05-15T20:15:17.848Z,95396.75
2023-05-15T20:17:47.188Z,95396.06
2023-05-15T20:20:17.172Z,95397.50
2023-05-15T20:22:46.530Z,95395.63
2023-05-15T20:25:15.832Z,95403.72
2023-05-15T20:27:44.929Z,95415.34
2023-05-15T20:30:13.940Z,95406.22
2023-05-15T20:32:43.011Z,95410.94
2023-05-15T20:35:13.197Z,95423.56
2023-05-15T20:37:43.557Z,95428.28
2023-05-15T20:40:13.586Z,95427.34
2023-05-15T20:42:42.619Z,95422.38
2023-05-15T20:45:11.734Z,95437.59
2023-05-15T20:47:40.998Z,95440.19
2023-05-15T20:50:10.840Z,95433.00
2023-05-15T20:52:40.098Z,95431.03
2023-05-15T20:55:16.572Z,95433.28
2023-05-15T20:57:46.878Z,95434.75
2023-05-15T21:00:18.785Z,95434.41
2023-05-15T21:02:48.019Z,95434.06
2023-05-15T21:05:17.067Z,95441.41
2023-05-15T21:07:46.090Z,95435.88
2023-05-15T21:10:15.089Z,95448.50
2023-05-15T21:12:44.208Z,95455.59
2023-05-15T21:15:13.200Z,95450.84
2023-05-15T21:17:42.124Z,95450.25
2023-05-15T21:20:11.626Z,95455.81
2023-05-15T21:22:41.667Z,95455.22
2023-05-15T21:25:12.050Z,95457.13
2023-05-15T21:27:42.624Z,95469.53
2023-05-15T21:30:12.150Z,95466.44
2023-05-15T21:32:41.197Z,95480.31
2023-05-15T21:35:10.795Z,95482.75
2023-05-15T21:37:39.842Z,95474.50
2023-05-15T21:40:09.459Z,95475.16
2023-05-15T21:42:38.298Z,95481.38
2023-05-15T21:45:08.101Z,95468.63
2023-05-15T21:47:37.061Z,95463.53
2023-05-15T21:50:07.536Z,95469.88
2023-05-15T21:52:36.456Z,95481.41
2023-05-15T21:55:05.755Z,95479.09
2023-05-15T21:57:34.850Z,95480.19
2023-05-15T22:00:08.093Z,95489.84
2023-05-15T22:02:37.246Z,95493.63
2023-05-15T22:05:06.779Z,95489.84
2023-05-15T22:07:35.805Z,95481.97
2023-05-15T22:10:05.861Z,95488.41
2023-05-15T22:12:35.330Z,95489.97
2023-05-15T22:15:04.383Z,95495.09
2023-05-15T22:17:36.803Z,95496.41
2023-05-15T22:20:12.010Z,95502.63
2023-05-15T22:22:43.122Z,95510.06
2023-05-15T22:25:12.583Z,95502.75
2023-05-15T22:27:41.966Z,95491.75
2023-05-15T22:30:11.267Z,95499.50
2023-05-15T22:32:41.762Z,95498.84
2023-05-15T22:35:11.956Z,95501.38
2023-05-15T22:37:42.715Z,95499.47
2023-05-15T22:40:12.560Z,95504.78
2023-05-15T22:42:41.622Z,95506.66
2023-05-15T22:45:10.981Z,95502.25
2023-05-15T22:47:39.958Z,95500.31
2023-05-15T22:50:09.591Z,95505.63
2023-05-15T22:52:39.245Z,95513.13
2023-05-15T22:55:08.781Z,95513.00
2023-05-15T22:57:37.872Z,95498.59
2023-05-15T23:00:08.860Z,95505.59
2023-05-15T23:02:38.933Z,95501.88
2023-05-15T23:05:08.190Z,95505.19
2023-05-15T23:07:37.656Z,95508.97
2023-05-15T23:10:07.357Z,95513.53
2023-05-15T23:12:36.328Z,95505.19
2023-05-15T23:15:06.228Z,95512.25
2023-05-15T23:17:36.233Z,95514.84
2023-05-15T23:20:11.060Z,95521.16
2023-05-15T23:22:40.117Z,95528.31
2023-05-15T23:25:10.264Z,95530.88
2023-05-15T23:27:39.213Z,95519.44
2023-05-15T23:30:08.842Z,95518.03
2023-05-15T23:32:37.792Z,95527.88
2023-05-15T23:35:07.265Z,95531.41
2023-05-15T23:37:36.445Z,95525.88
2023-05-15T23:40:06.607Z,95520.56
2023-05-15T23:42:35.529Z,95519.94
2023-05-15T23:45:04.699Z,95518.75
2023-05-15T23:47:34.843Z,95514.53
2023-05-15T23:50:04.252Z,95521.31
2023-05-15T23:52:33.624Z,95523.84
2023-05-15T23:55:02.545Z,95524.81
2023-05-15T23:57:32.362Z,95525.50
